Terminal Aerodrome Forecast
Issued by NWS

Home | Current Version | Previous Version | Text Only | Print | Product List | Glossary On
Versions: 1 2 3 4 5 6 7 8 9 10 11 12 13
000
FTAK31 PAFA 201131
TAFASC
TAF
PASC 201131Z 2012/2112 28006KT P6SM OVC018
     FM201900 11006KT P6SM BCFG OVC015
     FM210200 10013KT 6SM BLSN BR OVC015
     FM211000 09016G22KT 4SM BLSN BR OVC015=

USA.gov is the U.S. government's official web portal to all federal, state and local government web resources and services.